createdAt,value
2024-01-03T00:00:10.801Z,93
2024-01-03T00:02:09.764Z,93
2024-01-03T00:06:12.032Z,93
2024-01-03T00:10:16.055Z,93
2024-01-03T00:14:15.739Z,93
2024-01-03T00:16:18.764Z,93
2024-01-03T00:18:19.942Z,93
2024-01-03T00:20:21.378Z,93
2024-01-03T00:22:23.286Z,93
2024-01-03T00:24:22.744Z,93
2024-01-03T00:26:23.765Z,93
2024-01-03T00:28:22.907Z,93
2024-01-03T00:30:23.949Z,93
2024-01-03T00:32:27.069Z,93
2024-01-03T00:34:25.729Z,93
2024-01-03T00:36:26.644Z,93
2024-01-03T00:38:27.679Z,93
2024-01-03T00:42:29.728Z,93
2024-01-03T00:46:33.952Z,93
2024-01-03T00:48:32.841Z,93
2024-01-03T00:52:34.714Z,93
2024-01-03T00:54:35.658Z,93
2024-01-03T00:56:36.793Z,93
2024-01-03T00:58:37.887Z,93
2024-01-03T01:00:38.693Z,93
2024-01-03T01:02:39.663Z,93
2024-01-03T01:04:40.629Z,93
2024-01-03T01:06:41.703Z,93
2024-01-03T01:08:42.606Z,93
2024-01-03T01:10:45.783Z,93
2024-01-03T01:12:44.623Z,93
2024-01-03T01:14:45.773Z,93
2024-01-03T01:16:49.299Z,93
2024-01-03T01:18:47.791Z,93
2024-01-03T01:20:50.769Z,93
2024-01-03T01:22:49.730Z,93
2024-01-03T01:24:50.546Z,93
2024-01-03T01:26:51.611Z,93
2024-01-03T01:30:53.690Z,93
2024-01-03T01:32:55.014Z,93
2024-01-03T01:34:57.742Z,93
2024-01-03T01:36:56.638Z,93
2024-01-03T01:38:57.642Z,93
2024-01-03T01:40:58.604Z,93
2024-01-03T01:43:01.727Z,93
2024-01-03T01:45:02.742Z,93
2024-01-03T01:47:01.646Z,93
2024-01-03T01:49:02.872Z,93
2024-01-03T01:51:03.687Z,93
2024-01-03T01:53:04.604Z,93
2024-01-03T01:55:05.604Z,93
2024-01-03T01:57:08.683Z,93
2024-01-03T01:59:07.604Z,93
2024-01-03T02:01:08.747Z,93
2024-01-03T02:03:09.643Z,93
2024-01-03T02:05:10.631Z,93
2024-01-03T02:09:12.707Z,93
2024-01-03T02:11:13.587Z,93
2024-01-03T02:13:14.555Z,93
2024-01-03T02:15:15.641Z,93
2024-01-03T02:19:17.653Z,93
2024-01-03T02:23:19.664Z,93
2024-01-03T02:27:21.718Z,93
2024-01-03T02:29:22.784Z,93
2024-01-03T02:31:23.720Z,93
2024-01-03T02:33:26.757Z,93
2024-01-03T02:35:25.900Z,93
2024-01-03T02:37:28.846Z,93
2024-01-03T02:39:27.941Z,93
2024-01-03T02:41:30.734Z,93
2024-01-03T02:43:29.617Z,93
2024-01-03T02:45:31.765Z,93
2024-01-03T02:53:34.656Z,93
2024-01-03T02:55:35.581Z,93
2024-01-03T02:57:36.652Z,93
2024-01-03T02:59:39.778Z,93
2024-01-03T03:01:40.667Z,93
2024-01-03T03:03:39.651Z,93
2024-01-03T03:05:40.627Z,93
2024-01-03T03:07:41.711Z,93
2024-01-03T03:09:44.861Z,93
2024-01-03T03:11:44.081Z,92
2024-01-03T03:13:45.685Z,92
2024-01-03T03:15:45.730Z,92
2024-01-03T03:17:48.877Z,92
2024-01-03T03:19:47.714Z,92
2024-01-03T03:23:49.627Z,92
2024-01-03T03:25:50.777Z,92
2024-01-03T03:29:52.686Z,92
2024-01-03T03:31:53.962Z,92
2024-01-03T03:33:55.034Z,92
2024-01-03T03:35:55.790Z,92
2024-01-03T03:37:59.008Z,92
2024-01-03T03:39:57.795Z,92
2024-01-03T03:41:58.678Z,91
2024-01-03T03:44:01.786Z,91
2024-01-03T03:46:02.691Z,91
2024-01-03T03:48:01.947Z,91
2024-01-03T03:50:02.647Z,91
2024-01-03T03:52:05.747Z,91
2024-01-03T03:54:04.623Z,91
2024-01-03T03:56:05.635Z,91
2024-01-03T03:58:06.845Z,91
2024-01-03T04:02:08.677Z,91
2024-01-03T04:04:11.870Z,91
2024-01-03T04:06:10.782Z,91
2024-01-03T04:08:11.869Z,92
2024-01-03T04:10:12.873Z,92
2024-01-03T04:14:14.767Z,92
2024-01-03T04:16:15.560Z,92
2024-01-03T04:18:16.944Z,92
2024-01-03T04:20:17.570Z,92
2024-01-03T04:22:18.559Z,92
2024-01-03T04:24:21.693Z,92
2024-01-03T04:26:20.645Z,91
2024-01-03T04:28:25.054Z,91
2024-01-03T04:30:22.635Z,91
2024-01-03T04:32:23.719Z,91
2024-01-03T04:34:24.793Z,91
2024-01-03T04:36:25.541Z,91
2024-01-03T04:38:28.753Z,91
2024-01-03T04:40:27.623Z,91
2024-01-03T04:42:30.898Z,90
2024-01-03T04:44:29.597Z,90
2024-01-03T04:46:33.492Z,90
2024-01-03T04:48:31.714Z,90
2024-01-03T04:50:32.912Z,90
2024-01-03T04:52:33.629Z,90
2024-01-03T04:58:36.597Z,90
2024-01-03T05:00:37.760Z,90
2024-01-03T05:02:38.824Z,90
2024-01-03T05:04:39.671Z,90
2024-01-03T05:06:40.661Z,90
2024-01-03T05:10:42.728Z,89
2024-01-03T05:12:43.636Z,89
2024-01-03T05:14:44.750Z,89
2024-01-03T05:18:46.675Z,89
2024-01-03T05:20:47.883Z,89
2024-01-03T05:22:48.761Z,90
2024-01-03T05:24:49.592Z,90
2024-01-03T05:26:50.683Z,90
2024-01-03T05:28:51.716Z,90
2024-01-03T05:32:53.903Z,90
2024-01-03T05:34:54.613Z,90
2024-01-03T05:36:55.825Z,90
2024-01-03T05:38:56.630Z,90
2024-01-03T05:42:58.599Z,90
2024-01-03T05:44:59.681Z,90
2024-01-03T05:47:00.828Z,90
2024-01-03T05:49:02.515Z,90
2024-01-03T05:51:02.956Z,90
2024-01-03T05:53:05.640Z,90
2024-01-03T05:55:04.506Z,90
2024-01-03T05:57:05.605Z,90
2024-01-03T05:59:06.613Z,90
2024-01-03T06:01:07.583Z,90
2024-01-03T06:03:10.747Z,90
2024-01-03T06:05:09.571Z,90
2024-01-03T06:07:10.635Z,90
2024-01-03T06:09:11.574Z,90
2024-01-03T06:11:14.619Z,90
2024-01-03T06:13:13.516Z,90
2024-01-03T06:17:15.576Z,89
2024-01-03T06:19:16.745Z,89
2024-01-03T06:21:17.553Z,89
2024-01-03T06:23:19.141Z,89
2024-01-03T06:25:19.528Z,89
2024-01-03T06:27:20.603Z,89
2024-01-03T06:29:21.596Z,89
2024-01-03T06:35:24.836Z,89
2024-01-03T06:37:25.497Z,89
2024-01-03T06:39:26.568Z,89
2024-01-03T06:41:27.622Z,89
2024-01-03T06:43:30.613Z,89
2024-01-03T06:45:29.554Z,89
2024-01-03T06:47:32.913Z,89
2024-01-03T06:49:31.648Z,89
2024-01-03T06:51:32.717Z,89
2024-01-03T06:53:34.081Z,89
2024-01-03T06:55:34.505Z,89
2024-01-03T06:57:35.512Z,89
2024-01-03T07:05:39.585Z,89
2024-01-03T07:07:40.435Z,89
2024-01-03T07:09:41.754Z,89
2024-01-03T07:11:42.566Z,88
2024-01-03T07:13:43.475Z,88
2024-01-03T07:19:47.267Z,88
2024-01-03T07:21:47.526Z,88
2024-01-03T07:23:48.786Z,88
2024-01-03T07:25:51.751Z,88
2024-01-03T07:27:54.342Z,88
2024-01-03T07:29:51.533Z,88
2024-01-03T07:31:52.521Z,88
2024-01-03T07:33:53.762Z,88
2024-01-03T07:35:54.662Z,87
2024-01-03T07:37:55.570Z,87
2024-01-03T07:39:56.590Z,87
2024-01-03T07:41:57.626Z,87
2024-01-03T07:43:58.580Z,87
2024-01-03T07:45:59.504Z,87
2024-01-03T07:52:02.904Z,86
2024-01-03T07:54:03.814Z,86
2024-01-03T07:56:04.684Z,86
2024-01-03T07:58:05.612Z,86
2024-01-03T08:00:06.631Z,86
2024-01-03T08:02:07.535Z,86
2024-01-03T08:08:10.760Z,86
2024-01-03T08:10:11.572Z,86
2024-01-03T08:12:12.560Z,86
2024-01-03T08:14:13.601Z,86
2024-01-03T08:16:14.608Z,85
2024-01-03T08:20:16.649Z,85
2024-01-03T08:22:17.462Z,85
2024-01-03T08:24:18.667Z,85
2024-01-03T08:26:19.578Z,85
2024-01-03T08:28:20.524Z,85
2024-01-03T08:30:23.638Z,85
2024-01-03T08:32:26.491Z,85
2024-01-03T08:34:24.183Z,85
2024-01-03T08:38:25.603Z,84
2024-01-03T08:40:26.541Z,84
2024-01-03T08:42:27.582Z,83
2024-01-03T08:44:28.550Z,83
2024-01-03T08:46:29.598Z,83
2024-01-03T08:48:31.028Z,83
2024-01-03T08:50:31.651Z,83
2024-01-03T08:52:34.532Z,83
2024-01-03T08:54:33.521Z,82
2024-01-03T08:56:34.524Z,82
2024-01-03T08:58:35.543Z,82
2024-01-03T09:00:36.452Z,82
2024-01-03T09:02:37.664Z,81
2024-01-03T09:04:38.481Z,81
2024-01-03T09:06:39.572Z,81
2024-01-03T09:08:43.478Z,80
2024-01-03T09:10:41.819Z,80
2024-01-03T09:12:42.774Z,79
2024-01-03T09:14:43.943Z,79
2024-01-03T09:18:45.571Z,78
2024-01-03T09:20:48.668Z,78
2024-01-03T09:22:49.576Z,78
2024-01-03T09:24:48.563Z,78
2024-01-03T09:26:49.506Z,78
2024-01-03T09:28:50.438Z,78
2024-01-03T09:32:52.621Z,78
2024-01-03T09:34:53.515Z,78
2024-01-03T09:36:54.547Z,78
2024-01-03T09:38:55.869Z,78
2024-01-03T09:40:59.149Z,78
2024-01-03T09:42:57.868Z,78
2024-01-03T09:44:58.695Z,78
2024-01-03T09:46:59.442Z,78
2024-01-03T09:49:00.611Z,78
2024-01-03T09:51:01.582Z,78
2024-01-03T09:53:02.517Z,78
2024-01-03T09:55:03.552Z,78
2024-01-03T09:57:06.638Z,78
2024-01-03T09:59:07.603Z,78
2024-01-03T10:01:06.788Z,78
2024-01-03T10:03:07.735Z,78
2024-01-03T10:05:08.771Z,78
2024-01-03T10:07:09.431Z,78
2024-01-03T10:09:10.588Z,78
2024-01-03T10:11:13.562Z,78
2024-01-03T10:13:12.553Z,78
2024-01-03T10:15:13.541Z,78
2024-01-03T10:19:15.740Z,78
2024-01-03T10:21:16.555Z,78
2024-01-03T10:23:17.601Z,78
2024-01-03T10:29:20.583Z,78
2024-01-03T10:33:22.614Z,78
2024-01-03T10:35:23.574Z,78
2024-01-03T10:37:24.525Z,78
2024-01-03T10:39:25.466Z,77
2024-01-03T10:43:27.490Z,77
2024-01-03T10:45:28.669Z,77
2024-01-03T10:47:30.641Z,76
2024-01-03T10:49:32.711Z,76
2024-01-03T10:51:36.125Z,76
2024-01-03T10:53:32.598Z,76
2024-01-03T10:55:33.476Z,76
2024-01-03T10:57:34.407Z,76
2024-01-03T10:59:37.492Z,76
2024-01-03T11:01:37.019Z,76
2024-01-03T11:03:37.428Z,76
2024-01-03T11:05:38.464Z,76
2024-01-03T11:07:40.053Z,76
2024-01-03T11:11:41.534Z,76
2024-01-03T11:13:42.418Z,75
2024-01-03T11:15:47.827Z,75
2024-01-03T11:19:46.101Z,75
2024-01-03T11:21:48.530Z,75
2024-01-03T11:23:47.418Z,75
2024-01-03T11:25:48.455Z,75
2024-01-03T11:27:49.621Z,75
2024-01-03T11:29:52.551Z,75
2024-01-03T11:33:52.558Z,76
2024-01-03T11:35:54.275Z,76
2024-01-03T11:37:59.182Z,76
2024-01-03T11:39:55.396Z,76
2024-01-03T11:41:58.626Z,76
2024-01-03T11:43:57.525Z,76
2024-01-03T11:45:58.454Z,76
2024-01-03T11:47:59.576Z,76
2024-01-03T11:50:02.650Z,75
2024-01-03T11:52:01.555Z,75
2024-01-03T11:54:02.431Z,75
2024-01-03T11:56:03.461Z,75
2024-01-03T11:58:04.618Z,75
2024-01-03T12:00:07.544Z,75
2024-01-03T12:02:06.466Z,75
2024-01-03T12:06:10.566Z,75
2024-01-03T12:08:09.499Z,75
2024-01-03T12:10:10.400Z,74
2024-01-03T12:12:11.466Z,73
2024-01-03T12:14:14.687Z,72
2024-01-03T12:16:13.394Z,70
2024-01-03T12:18:14.659Z,69
2024-01-03T12:20:20.099Z,67
2024-01-03T12:22:16.390Z,66
2024-01-03T12:24:17.737Z,65
2024-01-03T12:26:20.626Z,64
2024-01-03T12:28:19.489Z,63
2024-01-03T12:30:20.629Z,62
2024-01-03T12:32:21.538Z,62
2024-01-03T12:34:22.595Z,61
2024-01-03T12:36:25.595Z,60
2024-01-03T12:38:26.732Z,60
2024-01-03T12:40:25.731Z,60
2024-01-03T12:42:32.184Z,59
2024-01-03T12:44:27.411Z,59
2024-01-03T12:48:29.592Z,59
2024-01-03T12:50:30.596Z,58
2024-01-03T12:52:31.494Z,57
2024-01-03T12:54:32.463Z,57
2024-01-03T12:58:34.547Z,58
2024-01-03T13:00:35.447Z,58
2024-01-03T13:04:37.415Z,60
2024-01-03T13:06:38.507Z,61
2024-01-03T13:08:39.389Z,61
2024-01-03T13:10:40.420Z,62
2024-01-03T13:12:41.466Z,63
2024-01-03T13:14:44.483Z,64
2024-01-03T13:18:44.563Z,66
2024-01-03T13:20:45.393Z,67
2024-01-03T13:22:48.448Z,68
2024-01-03T13:24:47.485Z,69
2024-01-03T13:26:48.422Z,70
2024-01-03T13:28:49.374Z,71
2024-01-03T13:30:50.500Z,72
2024-01-03T13:32:51.434Z,72
2024-01-03T13:34:54.590Z,73
2024-01-03T13:36:53.599Z,73
2024-01-03T13:38:54.415Z,73
2024-01-03T13:40:55.356Z,73
2024-01-03T13:42:56.920Z,73
2024-01-03T13:44:57.426Z,73
2024-01-03T13:47:00.836Z,72
2024-01-03T13:49:01.749Z,72
2024-01-03T13:51:00.580Z,72
2024-01-03T13:53:01.322Z,72
2024-01-03T13:59:04.382Z,71
2024-01-03T14:01:05.434Z,70
2024-01-03T14:03:06.601Z,70
2024-01-03T14:05:07.358Z,69
2024-01-03T14:07:08.340Z,69
2024-01-03T14:09:09.440Z,68
2024-01-03T14:11:10.471Z,68
2024-01-03T14:13:13.406Z,68
2024-01-03T14:15:12.589Z,68
2024-01-03T14:17:16.832Z,69
2024-01-03T14:19:14.561Z,69
2024-01-03T14:21:15.369Z,69
2024-01-03T14:23:16.358Z,69
2024-01-03T14:25:17.626Z,70
2024-01-03T14:29:19.381Z,70
2024-01-03T14:31:20.504Z,71
2024-01-03T14:33:21.375Z,71
2024-01-03T14:37:23.383Z,72
2024-01-03T14:39:24.471Z,72
2024-01-03T14:41:25.274Z,72
2024-01-03T14:45:27.349Z,73
2024-01-03T14:47:28.481Z,73
2024-01-03T14:49:29.428Z,74
2024-01-03T14:53:33.775Z,74
2024-01-03T14:55:34.543Z,75
2024-01-03T14:57:33.675Z,75
2024-01-03T14:59:34.596Z,75
2024-01-03T15:01:37.460Z,75
2024-01-03T15:03:38.454Z,75
2024-01-03T15:05:37.767Z,75
2024-01-03T15:07:38.485Z,75
2024-01-03T15:09:39.362Z,76
2024-01-03T15:17:43.414Z,76
2024-01-03T15:19:44.290Z,76
2024-01-03T15:21:45.313Z,76
2024-01-03T15:23:46.562Z,76
2024-01-03T15:25:49.446Z,76
2024-01-03T15:29:49.402Z,76
2024-01-03T15:31:52.825Z,76
2024-01-03T15:33:51.357Z,75
2024-01-03T15:35:52.381Z,75
2024-01-03T15:37:53.675Z,75
2024-01-03T15:39:54.382Z,75
2024-01-03T15:41:55.406Z,75
2024-01-03T15:43:56.613Z,75
2024-01-03T15:45:57.755Z,75
2024-01-03T15:47:58.567Z,75
2024-01-03T15:49:59.326Z,75
2024-01-03T15:52:02.442Z,75
2024-01-03T15:54:01.328Z,76
2024-01-03T15:56:03.404Z,76
2024-01-03T15:58:05.421Z,76
2024-01-03T16:00:04.421Z,76
2024-01-03T16:02:05.260Z,77
2024-01-03T16:04:06.423Z,77
2024-01-03T16:06:07.680Z,77
2024-01-03T16:10:09.335Z,77
2024-01-03T16:12:10.496Z,77
2024-01-03T16:14:11.281Z,77
2024-01-03T16:20:14.363Z,76
2024-01-03T16:22:15.346Z,76
2024-01-03T16:24:16.235Z,76
2024-01-03T16:26:17.289Z,76
2024-01-03T16:28:18.286Z,76
2024-01-03T16:30:21.695Z,76
2024-01-03T16:32:20.348Z,77
2024-01-03T16:34:23.391Z,77
2024-01-03T16:36:22.254Z,77
2024-01-03T16:38:23.288Z,77
2024-01-03T16:40:24.275Z,77
2024-01-03T16:42:25.408Z,77
2024-01-03T16:44:26.456Z,77
2024-01-03T16:46:28.393Z,77
2024-01-03T16:48:28.472Z,77
2024-01-03T16:50:29.299Z,77
2024-01-03T16:54:31.325Z,77
2024-01-03T16:56:32.370Z,77
2024-01-03T16:58:33.218Z,78
2024-01-03T17:00:34.411Z,78
2024-01-03T17:06:37.360Z,78
2024-01-03T17:08:40.429Z,78
2024-01-03T17:10:41.407Z,78
2024-01-03T17:12:42.457Z,78
2024-01-03T17:14:41.240Z,78
2024-01-03T17:16:44.394Z,78
2024-01-03T17:18:43.529Z,78
2024-01-03T17:20:46.367Z,78
2024-01-03T17:22:45.225Z,78
2024-01-03T17:24:46.352Z,78
2024-01-03T17:30:49.258Z,77
2024-01-03T17:32:50.365Z,77
2024-01-03T17:34:51.410Z,77
2024-01-03T17:36:52.299Z,77
2024-01-03T17:38:53.572Z,77
2024-01-03T17:42:55.438Z,77
2024-01-03T17:46:57.304Z,77
2024-01-03T17:50:59.281Z,77
2024-01-03T17:53:00.269Z,77
2024-01-03T17:55:01.319Z,78
2024-01-03T17:57:04.432Z,78
2024-01-03T17:59:03.279Z,77
2024-01-03T18:01:04.400Z,77
2024-01-03T18:03:05.276Z,77
2024-01-03T18:05:06.355Z,77
2024-01-03T18:07:07.241Z,77
2024-01-03T18:09:10.430Z,77
2024-01-03T18:11:09.272Z,77
2024-01-03T18:13:12.301Z,77
2024-01-03T18:15:11.314Z,77
2024-01-03T18:17:12.263Z,77
2024-01-03T18:19:13.899Z,77
2024-01-03T18:21:14.835Z,77
2024-01-03T18:23:15.253Z,77
2024-01-03T18:25:16.223Z,77
2024-01-03T18:27:18.028Z,77
2024-01-03T18:31:19.508Z,77
2024-01-03T18:33:20.553Z,77
2024-01-03T18:35:21.274Z,77
2024-01-03T18:41:24.354Z,77
2024-01-03T18:43:25.249Z,77
2024-01-03T18:45:28.523Z,77
2024-01-03T18:47:27.274Z,77
2024-01-03T18:49:30.548Z,77
2024-01-03T18:51:29.363Z,77
2024-01-03T18:53:30.270Z,77
2024-01-03T18:55:31.191Z,77
2024-01-03T18:57:32.188Z,77
2024-01-03T18:59:33.460Z,77
2024-01-03T19:01:34.451Z,77
2024-01-03T19:03:35.483Z,77
2024-01-03T19:05:36.355Z,77
2024-01-03T19:09:38.535Z,77
2024-01-03T19:11:39.148Z,77
2024-01-03T19:17:42.357Z,77
2024-01-03T19:19:43.449Z,77
2024-01-03T19:23:45.329Z,77
2024-01-03T19:25:46.213Z,77
2024-01-03T19:27:47.254Z,77
2024-01-03T19:29:48.197Z,77
2024-01-03T19:31:49.305Z,77
2024-01-03T19:33:50.354Z,77
2024-01-03T19:35:51.232Z,77
2024-01-03T19:37:54.435Z,77
2024-01-03T19:39:53.156Z,76
2024-01-03T19:45:56.290Z,76
2024-01-03T19:47:57.683Z,76
2024-01-03T19:49:58.382Z,76
2024-01-03T19:51:59.466Z,77
2024-01-03T19:54:00.587Z,77
2024-01-03T19:56:01.558Z,77
2024-01-03T19:58:02.279Z,77
2024-01-03T20:00:03.228Z,77
2024-01-03T20:02:04.156Z,77
2024-01-03T20:04:05.533Z,77
2024-01-03T20:06:06.286Z,77
2024-01-03T20:08:07.309Z,77
2024-01-03T20:10:08.205Z,77
2024-01-03T20:12:09.212Z,77
2024-01-03T20:16:11.265Z,77
2024-01-03T20:18:12.305Z,77
2024-01-03T20:20:13.249Z,77
2024-01-03T20:22:16.306Z,77
2024-01-03T20:24:15.600Z,76
2024-01-03T20:26:17.645Z,76
2024-01-03T20:28:17.545Z,76
2024-01-03T20:30:18.264Z,76
2024-01-03T20:32:19.509Z,76
2024-01-03T20:34:20.779Z,76
2024-01-03T20:36:21.827Z,76
2024-01-03T20:38:22.287Z,76
2024-01-03T20:40:23.323Z,76
2024-01-03T20:42:24.167Z,76
2024-01-03T20:46:26.162Z,76
2024-01-03T20:50:28.385Z,76
2024-01-03T20:52:29.241Z,76
2024-01-03T20:54:30.287Z,76
2024-01-03T20:56:31.233Z,76
2024-01-03T20:58:32.276Z,76
2024-01-03T21:00:33.209Z,76
2024-01-03T21:02:34.257Z,76
2024-01-03T21:04:37.381Z,76
2024-01-03T21:06:38.352Z,76
2024-01-03T21:08:37.467Z,76
2024-01-03T21:10:38.346Z,76
2024-01-03T21:12:39.165Z,76
2024-01-03T21:16:41.197Z,76
2024-01-03T21:18:42.228Z,76
2024-01-03T21:20:45.281Z,76
2024-01-03T21:22:44.239Z,76
2024-01-03T21:24:47.531Z,76
2024-01-03T21:26:46.218Z,76
2024-01-03T21:28:47.229Z,76
2024-01-03T21:30:48.189Z,76
2024-01-03T21:32:49.314Z,76
2024-01-03T21:34:52.281Z,76
2024-01-03T21:36:51.229Z,76
2024-01-03T21:38:52.238Z,76
2024-01-03T21:40:53.125Z,76
2024-01-03T21:42:54.365Z,76
2024-01-03T21:48:57.362Z,76
2024-01-03T21:50:58.208Z,76
2024-01-03T21:57:01.282Z,76
2024-01-03T21:59:02.217Z,76
2024-01-03T22:01:03.235Z,76
2024-01-03T22:03:04.368Z,76
2024-01-03T22:07:06.288Z,76
2024-01-03T22:09:07.358Z,76
2024-01-03T22:11:08.191Z,76
2024-01-03T22:13:09.199Z,76
2024-01-03T22:15:10.236Z,76
2024-01-03T22:17:11.238Z,76
2024-01-03T22:19:12.293Z,76
2024-01-03T22:23:14.076Z,77
2024-01-03T22:25:17.240Z,77
2024-01-03T22:27:16.410Z,77
2024-01-03T22:29:19.978Z,77
2024-01-03T22:31:18.200Z,76
2024-01-03T22:33:19.266Z,76
2024-01-03T22:35:20.250Z,76
2024-01-03T22:37:23.348Z,76
2024-01-03T22:39:22.182Z,77
2024-01-03T22:41:23.170Z,77
2024-01-03T22:43:24.212Z,77
2024-01-03T22:45:27.342Z,77
2024-01-03T22:47:26.178Z,77
2024-01-03T22:49:27.272Z,77
2024-01-03T22:51:30.397Z,77
2024-01-03T22:53:29.188Z,77
2024-01-03T22:55:30.147Z,77
2024-01-03T22:59:32.140Z,77
2024-01-03T23:01:33.097Z,77
2024-01-03T23:03:36.301Z,77
2024-01-03T23:05:35.341Z,77
2024-01-03T23:07:41.359Z,77
2024-01-03T23:09:37.160Z,77
2024-01-03T23:11:38.286Z,77
2024-01-03T23:13:39.178Z,77
2024-01-03T23:15:40.068Z,77
2024-01-03T23:17:41.396Z,77
2024-01-03T23:19:42.462Z,77
2024-01-03T23:21:43.159Z,77
2024-01-03T23:23:46.415Z,77
2024-01-03T23:25:47.311Z,77
2024-01-03T23:27:46.118Z,77
2024-01-03T23:29:47.126Z,77
2024-01-03T23:31:48.204Z,77
2024-01-03T23:33:49.192Z,77
2024-01-03T23:35:50.661Z,77
2024-01-03T23:37:51.205Z,77
2024-01-03T23:39:52.243Z,77
2024-01-03T23:43:54.128Z,77
2024-01-03T23:45:55.452Z,77
2024-01-03T23:51:58.532Z,78
2024-01-03T23:53:59.310Z,78
2024-01-03T23:56:00.380Z,78
2024-01-03T23:58:01.165Z,78
